Time;durP1;ratioP1;P1;durP2;ratioP2;P2;SDS_P1;SDS_P2;PMS_P1;PMS_P2;Temp;Humidity;BMP_temperature;BMP_pressure;BME280_temperature;BME280_humidity;BME280_pressure;Samples;Min_cycle;Max_cycle;Signal;HPM_P1;HPM_P2
2021/07/15 00:01:42;;;;;;;12.73;8.48;;;;;;;19.20;92.86;97610.77;1662198;86;20919;-75
2021/07/15 00:04:08;;;;;;;15.85;8.00;;;;;;;19.13;92.64;97589.38;1663671;85;21305;-75
2021/07/15 00:06:34;;;;;;;19.07;8.43;;;;;;;19.13;93.08;97633.31;1663463;85;20927;-75
2021/07/15 00:09:00;;;;;;;16.20;8.58;;;;;;;19.14;92.89;97635.48;1663575;85;20970;-75
2021/07/15 00:11:27;;;;;;;15.53;8.78;;;;;;;19.14;92.65;97678.05;1663459;85;21161;-75
2021/07/15 00:13:54;;;;;;;18.65;8.80;;;;;;;19.15;92.41;97683.23;1663528;86;21007;-75
2021/07/15 00:16:22;;;;;;;14.60;7.60;;;;;;;19.20;92.95;97716.51;1663596;85;21479;-75
2021/07/15 00:18:48;;;;;;;11.63;7.80;;;;;;;19.11;92.72;97722.11;1663482;85;21055;-75
2021/07/15 00:21:16;;;;;;;16.55;10.48;;;;;;;19.08;92.50;97715.14;1663581;85;21030;-75
2021/07/15 00:23:42;;;;;;;17.25;8.05;;;;;;;19.12;92.29;97713.30;1672966;85;20999;-75
2021/07/15 00:26:08;;;;;;;19.32;9.13;;;;;;;19.10;92.51;97704.03;1672000;85;21458;-75
2021/07/15 00:28:36;;;;;;;13.62;8.55;;;;;;;19.13;92.38;97697.84;1671653;85;21098;-75
2021/07/15 00:31:02;;;;;;;22.82;9.00;;;;;;;19.16;93.08;97697.75;1672106;85;21392;-75
2021/07/15 00:33:28;;;;;;;15.95;7.97;;;;;;;19.18;92.44;97716.63;1671667;85;20963;-75
2021/07/15 00:35:55;;;;;;;14.47;8.15;;;;;;;19.21;92.29;97712.61;1663541;86;20987;-75
2021/07/15 00:38:22;;;;;;;12.58;7.90;;;;;;;19.24;92.19;97706.45;1671978;85;20927;-75
2021/07/15 00:40:47;;;;;;;15.70;8.25;;;;;;;19.27;92.11;97689.85;1663658;85;21324;-75
2021/07/15 00:43:13;;;;;;;11.90;7.33;;;;;;;19.25;92.11;97697.64;1671968;85;21575;-75
2021/07/15 00:45:39;;;;;;;16.12;7.08;;;;;;;19.23;92.72;97703.48;1663139;86;20903;-74
2021/07/15 00:48:06;;;;;;;13.25;7.55;;;;;;;19.13;92.38;97695.67;1726511;83;20895;-74
2021/07/15 00:50:32;;;;;;;18.80;7.90;;;;;;;19.10;92.24;97680.70;1691886;84;20991;-74
2021/07/15 00:52:58;;;;;;;14.33;6.92;;;;;;;19.12;92.44;97689.39;1663520;85;20938;-75
2021/07/15 00:55:28;;;;;;;14.78;6.67;;;;;;;19.05;92.29;97685.03;1726935;82;20910;-74
2021/07/15 00:57:54;;;;;;;11.50;6.47;;;;;;;19.03;92.39;97668.68;1725555;83;20919;-75
2021/07/15 01:00:20;;;;;;;12.53;6.62;;;;;;;19.01;92.26;97667.66;1726971;83;20939;-74
2021/07/15 01:02:46;;;;;;;14.90;6.80;;;;;;;19.07;92.31;97686.09;1726687;83;21006;-74
2021/07/15 01:05:23;;;;;;;15.90;7.75;;;;;;;19.08;92.14;97698.09;1691490;84;21959;-75
2021/07/15 01:07:50;;;;;;;14.25;6.92;;;;;;;19.07;92.11;97690.20;1663011;85;20983;-75
2021/07/15 01:10:18;;;;;;;13.50;8.08;;;;;;;19.08;91.95;97658.28;1664213;85;21046;-74
2021/07/15 01:13:02;;;;;;;12.85;7.87;;;;;;;19.06;93.94;97642.73;1706968;83;20975;-74
2021/07/15 01:15:32;;;;;;;10.95;6.25;;;;;;;19.06;92.90;97627.62;1691858;84;20995;-73
2021/07/15 01:18:04;;;;;;;14.20;7.50;;;;;;;19.05;92.87;97630.69;1726441;82;21763;-74
2021/07/15 01:21:24;;;;;;;13.08;7.40;;;;;;;18.99;92.56;97643.07;1726521;83;20919;-74
2021/07/15 01:24:45;;;;;;;9.65;5.87;;;;;;;19.01;92.71;97660.00;1697140;84;20974;-74
2021/07/15 01:27:55;;;;;;;10.08;6.75;;;;;;;18.99;92.95;97638.37;1713030;83;20983;-73
2021/07/15 01:30:25;;;;;;;12.43;7.10;;;;;;;18.88;92.83;97633.92;1727371;82;20944;-74
2021/07/15 01:33:28;;;;;;;11.33;6.70;;;;;;;18.90;93.90;97633.58;1726841;82;21365;-74
2021/07/15 01:36:10;;;;;;;14.03;6.15;;;;;;;18.92;93.76;97638.14;1663857;85;21471;-74
2021/07/15 01:38:47;;;;;;;15.25;6.55;;;;;;;18.82;94.12;97657.25;1726635;82;21018;-73
2021/07/15 01:41:23;;;;;;;12.18;7.72;;;;;;;18.73;94.16;97639.29;1691716;84;21444;-73
2021/07/15 01:44:02;;;;;;;13.05;7.37;;;;;;;18.73;93.84;97614.59;1725520;83;21367;-74
2021/07/15 01:46:35;;;;;;;15.45;8.60;;;;;;;18.76;93.80;97617.44;1728160;82;21020;-74
2021/07/15 01:49:03;;;;;;;10.78;5.53;;;;;;;18.74;94.81;97611.50;1691554;84;20928;-73
2021/07/15 01:51:29;;;;;;;10.78;6.78;;;;;;;18.78;94.51;97647.28;1726617;83;20945;-73
2021/07/15 01:53:55;;;;;;;15.75;8.53;;;;;;;18.73;94.37;97654.38;1706229;83;20859;-73
2021/07/15 01:56:21;;;;;;;14.47;6.95;;;;;;;18.72;94.15;97638.49;1659827;83;21551;-73
2021/07/15 01:58:47;;;;;;;10.45;7.70;;;;;;;18.77;93.95;97642.36;1691718;84;21325;-74
2021/07/15 02:01:13;;;;;;;11.48;6.28;;;;;;;18.84;95.25;97645.34;1726848;82;21034;-73
2021/07/15 02:03:44;;;;;;;17.12;6.60;;;;;;;18.91;94.65;97661.83;1691902;84;21023;-73
2021/07/15 02:06:09;;;;;;;16.05;7.42;;;;;;;18.90;94.29;97652.00;1726557;83;21018;-74
2021/07/15 02:08:36;;;;;;;13.88;7.25;;;;;;;18.93;93.99;97633.45;1726753;83;20915;-74
2021/07/15 02:11:01;;;;;;;13.18;7.17;;;;;;;18.99;93.87;97629.34;1726695;82;21101;-74
2021/07/15 02:13:28;;;;;;;15.70;7.42;;;;;;;19.05;93.78;97647.97;1663476;86;20949;-74
2021/07/15 02:15:53;;;;;;;10.95;6.90;;;;;;;19.04;93.62;97667.53;1663562;86;21093;-73
2021/07/15 02:18:22;;;;;;;13.08;6.95;;;;;;;18.99;93.49;97652.68;1663510;85;20879;-73
2021/07/15 02:20:51;;;;;;;9.88;6.87;;;;;;;18.94;94.37;97633.11;1663943;85;21038;-73
2021/07/15 02:23:17;;;;;;;12.03;7.60;;;;;;;18.93;93.96;97638.95;1691795;84;21176;-74
2021/07/15 02:25:43;;;;;;;14.87;7.25;;;;;;;18.94;93.96;97652.89;1726885;82;20919;-74
2021/07/15 02:28:12;;;;;;;13.48;7.65;;;;;;;19.00;93.84;97661.14;1691811;84;20959;-74
2021/07/15 02:30:38;;;;;;;12.98;6.85;;;;;;;19.03;93.65;97672.23;1726892;82;21030;-74
2021/07/15 02:33:10;;;;;;;12.55;6.60;;;;;;;19.06;93.50;97666.64;1726560;83;20852;-73
2021/07/15 02:35:43;;;;;;;9.83;6.65;;;;;;;19.11;93.29;97658.95;1725415;82;21151;-73
2021/07/15 02:38:11;;;;;;;11.68;8.13;;;;;;;19.13;93.24;97655.86;1726107;83;21010;-73
2021/07/15 02:40:37;;;;;;;14.47;7.83;;;;;;;19.13;93.44;97645.67;1726996;83;21019;-73
2021/07/15 02:43:04;;;;;;;12.50;7.10;;;;;;;19.12;93.38;97635.84;1726534;82;20891;-73
2021/07/15 02:45:30;;;;;;;14.35;7.33;;;;;;;19.08;93.33;97647.88;1726826;82;21450;-74
2021/07/15 02:47:56;;;;;;;10.55;7.05;;;;;;;18.99;93.85;97671.90;1726584;82;21924;-74
2021/07/15 02:50:23;;;;;;;13.95;6.55;;;;;;;18.90;94.08;97677.50;1727124;82;20836;-74
2021/07/15 02:52:54;;;;;;;9.98;6.10;;;;;;;18.91;93.97;97655.77;1726570;83;21031;-73
2021/07/15 02:55:20;;;;;;;12.85;6.37;;;;;;;18.95;95.61;97643.52;1706441;82;21035;-73
2021/07/15 02:57:57;;;;;;;21.68;7.70;;;;;;;18.96;95.94;97635.50;1671759;84;21042;-74
2021/07/15 03:00:24;;;;;;;12.85;7.60;;;;;;;18.98;94.66;97640.90;1726240;82;21019;-74
2021/07/15 03:03:15;;;;;;;12.50;6.40;;;;;;;18.98;94.48;97664.23;1644529;86;20940;-74
2021/07/15 03:05:59;;;;;;;10.72;6.20;;;;;;;18.98;94.31;97665.61;1692087;84;21034;-74
2021/07/15 03:08:30;;;;;;;13.08;6.53;;;;;;;19.00;93.96;97659.20;1726712;82;21395;-73
2021/07/15 03:10:55;;;;;;;10.53;6.45;;;;;;;19.02;93.70;97650.61;1726927;82;21074;-74
2021/07/15 03:13:23;;;;;;;11.55;7.00;;;;;;;19.03;93.44;97627.50;1726587;82;21312;-74
2021/07/15 03:15:49;;;;;;;10.72;6.72;;;;;;;18.99;93.68;97621.11;1726644;83;21030;-74
2021/07/15 03:18:19;;;;;;;11.70;7.28;;;;;;;18.97;93.90;97628.32;1691636;84;21011;-74
2021/07/15 03:20:45;;;;;;;14.00;7.87;;;;;;;18.92;93.72;97631.28;1727269;82;21345;-74
2021/07/15 03:23:17;;;;;;;13.48;8.20;;;;;;;18.96;93.71;97632.76;1726502;83;20916;-74
2021/07/15 03:25:49;;;;;;;15.43;6.10;;;;;;;18.98;93.54;97621.69;1726789;82;21137;-74
2021/07/15 03:28:17;;;;;;;9.68;6.80;;;;;;;18.99;93.50;97619.73;1726453;83;20920;-74
2021/07/15 03:30:43;;;;;;;13.18;7.67;;;;;;;18.91;93.27;97610.47;1663933;85;20998;-74
2021/07/15 03:33:09;;;;;;;10.60;7.10;;;;;;;18.86;93.55;97597.77;1690942;84;20960;-74
2021/07/15 03:35:35;;;;;;;8.78;6.17;;;;;;;18.89;93.65;97607.27;1663823;85;20910;-74
2021/07/15 03:38:03;;;;;;;12.25;7.37;;;;;;;18.93;93.52;97619.73;1726756;82;21071;-74
2021/07/15 03:40:29;;;;;;;11.90;8.05;;;;;;;18.97;93.47;97635.19;1663484;86;20983;-74
2021/07/15 03:42:55;;;;;;;15.85;8.20;;;;;;;18.99;93.38;97630.14;1726446;83;20971;-74
2021/07/15 03:45:21;;;;;;;11.15;7.10;;;;;;;19.02;93.24;97608.85;1663587;85;20995;-74
2021/07/15 03:47:49;;;;;;;14.45;8.50;;;;;;;19.04;93.52;97590.66;1726358;83;21089;-74
2021/07/15 03:50:15;;;;;;;12.98;8.75;;;;;;;19.02;94.26;97587.46;1726745;83;21316;-74
2021/07/15 03:52:41;;;;;;;13.65;7.62;;;;;;;19.03;94.02;97591.80;1726556;83;20983;-74
2021/07/15 03:55:08;;;;;;;12.33;7.08;;;;;;;18.92;93.96;97603.03;1706112;83;20863;-74
2021/07/15 03:57:33;;;;;;;9.80;7.42;;;;;;;18.84;94.08;97606.92;1663571;85;20935;-74
2021/07/15 03:59:59;;;;;;;15.40;8.10;;;;;;;18.83;94.58;97598.46;1726992;83;20848;-74
2021/07/15 04:02:27;;;;;;;12.20;6.67;;;;;;;18.87;94.45;97605.42;1663849;85;21312;-74
2021/07/15 04:04:58;;;;;;;9.65;6.50;;;;;;;18.94;94.06;97582.89;1671731;84;20920;-74
2021/07/15 04:07:27;;;;;;;16.05;7.17;;;;;;;18.97;93.83;97588.52;1726755;83;21038;-73
2021/07/15 04:09:52;;;;;;;15.65;7.28;;;;;;;18.94;93.84;97586.44;1663673;86;20943;-74
2021/07/15 04:12:22;;;;;;;12.78;6.97;;;;;;;18.91;93.97;97582.22;1663939;85;20938;-73
2021/07/15 04:15:08;;;;;;;10.93;6.87;;;;;;;18.91;93.81;97562.43;1663706;86;21041;-74
2021/07/15 04:17:45;;;;;;;11.03;7.25;;;;;;;18.93;93.81;97566.20;1663294;85;20939;-73
2021/07/15 04:20:11;;;;;;;10.43;6.35;;;;;;;18.95;94.58;97594.09;1664033;86;20927;-74
2021/07/15 04:22:39;;;;;;;13.15;6.17;;;;;;;18.98;94.53;97641.47;1663747;86;21407;-74
2021/07/15 04:25:06;;;;;;;9.65;6.03;;;;;;;18.89;94.28;97641.59;1658510;86;20931;-74
2021/07/15 04:27:32;;;;;;;16.57;8.33;;;;;;;18.91;94.16;97622.03;1726858;83;21328;-74
2021/07/15 04:30:07;;;;;;;20.15;6.95;;;;;;;18.98;94.18;97629.13;1726640;83;20971;-74
2021/07/15 04:32:44;;;;;;;16.90;7.00;;;;;;;19.00;94.96;97633.69;1691669;84;20979;-73
2021/07/15 04:35:13;;;;;;;20.57;8.80;;;;;;;18.95;94.13;97636.65;1664030;86;20963;-74
2021/07/15 04:37:40;;;;;;;11.70;5.75;;;;;;;18.90;95.94;97593.78;1726796;82;20979;-74
2021/07/15 04:40:09;;;;;;;11.80;7.90;;;;;;;18.90;94.36;97608.08;1644491;86;21308;-74
2021/07/15 04:42:35;;;;;;;12.73;7.05;;;;;;;18.87;94.36;97661.13;1659432;85;20939;-73
2021/07/15 04:45:01;;;;;;;12.07;7.20;;;;;;;18.90;94.31;97716.50;1676767;83;21059;-74
2021/07/15 04:47:26;;;;;;;11.20;6.05;;;;;;;18.82;94.19;97732.73;1726254;82;21525;-74
2021/07/15 04:49:52;;;;;;;13.53;5.97;;;;;;;18.81;94.84;97727.02;1650590;86;20859;-74
2021/07/15 04:52:18;;;;;;;12.03;6.60;;;;;;;18.87;94.69;97715.22;1721919;83;21330;-74
2021/07/15 04:54:45;;;;;;;10.28;6.00;;;;;;;18.95;94.16;97688.81;1650183;86;20936;-74
2021/07/15 04:57:11;;;;;;;10.43;6.40;;;;;;;18.97;94.19;97662.64;1721847;82;20935;-74
2021/07/15 04:59:39;;;;;;;15.75;7.40;;;;;;;19.00;94.03;97641.92;1721387;83;21019;-74
2021/07/15 05:02:04;;;;;;;14.05;6.72;;;;;;;19.01;93.77;97652.56;1650580;85;21502;-74
2021/07/15 05:04:32;;;;;;;9.35;6.12;;;;;;;19.03;93.64;97676.34;1650264;87;22046;-74
2021/07/15 05:06:57;;;;;;;11.38;6.20;;;;;;;19.01;94.28;97692.37;1678133;85;21031;-74
2021/07/15 05:09:23;;;;;;;19.55;7.75;;;;;;;18.98;94.90;97688.14;1669612;86;20895;-74
2021/07/15 05:11:49;;;;;;;10.50;6.58;;;;;;;18.98;94.44;97684.83;1656915;85;20883;-74
2021/07/15 05:14:15;;;;;;;12.53;6.72;;;;;;;18.98;94.62;97715.03;1730195;83;21516;-74
2021/07/15 05:16:41;;;;;;;12.13;7.90;;;;;;;18.96;94.09;97712.38;1657675;85;22027;-74
2021/07/15 05:19:07;;;;;;;9.30;6.37;;;;;;;18.96;94.19;97684.92;1725997;83;20879;-74
2021/07/15 05:21:33;;;;;;;14.55;6.28;;;;;;;18.98;94.22;97651.88;1721904;83;21588;-74
2021/07/15 05:23:59;;;;;;;9.43;6.70;;;;;;;19.04;94.04;97620.86;1721754;83;20946;-74
2021/07/15 05:26:25;;;;;;;11.03;7.12;;;;;;;19.03;94.35;97604.96;1721884;83;20895;-74
2021/07/15 05:28:51;;;;;;;31.90;21.73;;;;;;;19.04;94.00;97620.28;1721925;82;21361;-74
2021/07/15 05:31:18;;;;;;;13.95;10.85;;;;;;;19.08;93.92;97634.14;1657307;85;20926;-74
2021/07/15 05:33:44;;;;;;;14.95;8.25;;;;;;;19.14;94.37;97621.76;1730226;82;21459;-74
2021/07/15 05:36:11;;;;;;;12.98;8.38;;;;;;;19.24;93.77;97617.19;1672730;85;20947;-74
2021/07/15 05:38:42;;;;;;;10.38;6.97;;;;;;;19.36;93.73;97614.98;1648653;86;21490;-74
2021/07/15 05:41:10;;;;;;;12.85;6.95;;;;;;;19.34;93.54;97633.19;1669823;86;21027;-73
2021/07/15 05:43:36;;;;;;;11.25;6.83;;;;;;;19.34;93.61;97666.16;1668925;84;21081;-74
2021/07/15 05:46:03;;;;;;;15.63;7.58;;;;;;;19.36;93.69;97671.30;1670070;84;20919;-74
2021/07/15 05:48:30;;;;;;;12.98;7.20;;;;;;;19.35;93.52;97656.77;1667833;85;20992;-74
2021/07/15 05:50:56;;;;;;;15.60;8.68;;;;;;;19.41;93.49;97668.33;1647929;86;21557;-74
2021/07/15 05:53:22;;;;;;;14.47;7.70;;;;;;;19.40;93.44;97662.61;1669699;85;21174;-74
2021/07/15 05:55:48;;;;;;;12.65;7.67;;;;;;;19.42;93.68;97689.16;1647944;87;20901;-74
2021/07/15 05:58:14;;;;;;;13.88;8.08;;;;;;;19.40;93.60;97712.86;1669842;86;20926;-74
2021/07/15 06:00:40;;;;;;;14.03;8.53;;;;;;;19.41;93.54;97708.97;1647869;87;21000;-74
2021/07/15 06:03:06;;;;;;;16.50;8.33;;;;;;;19.42;93.56;97735.86;1669790;85;20967;-74
2021/07/15 06:05:33;;;;;;;12.68;7.80;;;;;;;19.42;93.90;97760.02;1647555;86;21244;-74
2021/07/15 06:08:00;;;;;;;19.67;9.38;;;;;;;19.37;93.92;97739.63;1669610;85;21030;-74
2021/07/15 06:10:27;;;;;;;15.23;9.78;;;;;;;19.34;93.97;97732.09;1647599;87;21457;-74
2021/07/15 06:12:53;;;;;;;15.25;9.05;;;;;;;19.24;93.77;97760.02;1669851;85;20943;-75
2021/07/15 06:15:19;;;;;;;11.15;7.97;;;;;;;19.15;94.16;97806.81;1647844;87;20944;-75
2021/07/15 06:17:45;;;;;;;12.60;8.73;;;;;;;19.07;94.67;97842.60;1669761;86;21178;-75
2021/07/15 06:20:13;;;;;;;15.38;8.43;;;;;;;18.88;95.07;97836.23;1647773;87;20980;-75
2021/07/15 06:22:40;;;;;;;14.53;9.43;;;;;;;18.79;94.99;97828.66;1669626;85;21467;-75
2021/07/15 06:25:08;;;;;;;13.13;9.38;;;;;;;18.77;95.05;97801.55;1647756;87;20996;-74
2021/07/15 06:27:34;;;;;;;17.67;9.50;;;;;;;18.78;94.98;97766.67;1669699;85;20935;-74
2021/07/15 06:30:00;;;;;;;13.60;8.15;;;;;;;18.76;97.47;97718.19;1647791;87;22002;-75
2021/07/15 06:32:26;;;;;;;12.35;7.90;;;;;;;18.71;96.82;97685.46;1669733;85;20895;-75
2021/07/15 06:34:51;;;;;;;12.85;8.05;;;;;;;18.68;96.61;97677.34;1647780;86;20940;-75
2021/07/15 06:37:17;;;;;;;14.68;8.15;;;;;;;18.72;96.06;97702.19;1669846;86;20855;-74
2021/07/15 06:39:44;;;;;;;13.20;8.85;;;;;;;18.74;96.26;97720.47;1647813;87;20889;-75
2021/07/15 06:42:10;;;;;;;15.70;8.90;;;;;;;18.73;96.03;97715.56;1669679;85;21209;-75
2021/07/15 06:44:35;;;;;;;13.45;7.53;;;;;;;18.71;97.03;97710.95;1647477;87;20953;-75
2021/07/15 06:47:04;;;;;;;12.85;7.92;;;;;;;18.68;96.85;97700.67;1669783;86;20871;-75
2021/07/15 06:49:30;;;;;;;11.48;7.80;;;;;;;18.67;96.20;97688.67;1647898;87;20974;-75
2021/07/15 06:51:57;;;;;;;17.73;8.05;;;;;;;18.67;96.37;97679.86;1669959;86;20995;-74
2021/07/15 06:54:23;;;;;;;17.17;7.60;;;;;;;18.68;96.89;97673.23;1647663;86;21639;-75
2021/07/15 06:56:49;;;;;;;14.50;8.58;;;;;;;18.77;96.21;97669.02;1669799;86;20951;-74
2021/07/15 06:59:15;;;;;;;13.10;9.25;;;;;;;18.82;95.94;97666.85;1647830;87;20893;-74
2021/07/15 07:01:41;;;;;;;14.00;8.93;;;;;;;18.88;96.00;97679.22;1669858;85;21556;-74
2021/07/15 07:04:07;;;;;;;14.73;7.08;;;;;;;18.89;95.81;97685.51;1647953;87;20862;-74
2021/07/15 07:06:33;;;;;;;12.30;7.95;;;;;;;18.90;96.59;97687.11;1669864;86;21342;-74
2021/07/15 07:08:59;;;;;;;9.43;7.08;;;;;;;18.97;96.58;97691.47;1647737;86;21359;-74
2021/07/15 07:11:25;;;;;;;9.45;6.20;;;;;;;19.07;96.16;97686.09;1669763;86;20998;-74
2021/07/15 07:13:51;;;;;;;8.83;6.53;;;;;;;19.16;95.85;97688.14;1647775;87;20957;-75
2021/07/15 07:16:16;;;;;;;9.55;5.95;;;;;;;19.20;95.34;97691.80;1669913;86;20867;-75
2021/07/15 07:18:42;;;;;;;7.42;5.75;;;;;;;19.17;95.21;97691.12;1647785;87;22010;-74
2021/07/15 07:21:08;;;;;;;6.75;5.83;;;;;;;19.21;95.24;97711.81;1669786;86;20863;-75
2021/07/15 07:23:34;;;;;;;11.83;6.58;;;;;;;19.16;94.99;97720.53;1647866;87;20981;-75
2021/07/15 07:26:00;;;;;;;7.17;5.37;;;;;;;19.05;94.89;97735.83;1669646;85;21035;-74
2021/07/15 07:28:27;;;;;;;12.23;5.20;;;;;;;19.06;94.89;97736.66;1647730;85;20909;-75
2021/07/15 07:30:54;;;;;;;5.97;4.60;;;;;;;19.06;94.79;97746.27;1669556;85;21170;-75
2021/07/15 07:33:20;;;;;;;7.33;4.15;;;;;;;19.00;94.39;97739.39;1647487;85;20962;-75
2021/07/15 07:35:47;;;;;;;17.60;11.05;;;;;;;18.97;93.97;97748.29;1669655;85;20969;-75
2021/07/15 07:38:12;;;;;;;7.60;3.67;;;;;;;18.96;93.96;97755.72;1647711;87;20986;-75
2021/07/15 07:40:38;;;;;;;8.40;3.65;;;;;;;18.87;93.89;97762.69;1647685;87;21504;-75
2021/07/15 07:43:05;;;;;;;5.55;2.80;;;;;;;18.77;93.65;97764.50;1647772;87;21353;-75
2021/07/15 07:45:31;;;;;;;5.37;2.80;;;;;;;18.66;93.24;97761.16;1647521;87;21407;-75
2021/07/15 07:47:56;;;;;;;4.78;2.77;;;;;;;18.59;93.28;97744.64;1657798;85;21623;-74
2021/07/15 07:50:22;;;;;;;8.03;4.45;;;;;;;18.56;93.17;97754.13;1669704;86;20852;-75
2021/07/15 07:52:48;;;;;;;6.85;3.08;;;;;;;18.53;93.38;97760.27;1671240;85;20843;-74
2021/07/15 07:55:14;;;;;;;4.72;3.00;;;;;;;18.48;93.29;97759.13;1684063;85;22070;-75
2021/07/15 07:57:40;;;;;;;7.87;4.33;;;;;;;18.50;93.19;97773.30;1743779;82;20862;-75
2021/07/15 08:00:13;;;;;;;8.43;4.33;;;;;;;18.43;93.09;97762.87;1671140;85;21453;-74
2021/07/15 08:02:43;;;;;;;5.17;3.20;;;;;;;18.44;93.16;97749.95;1689213;85;21022;-74
2021/07/15 08:05:10;;;;;;;7.25;3.47;;;;;;;18.45;93.00;97734.52;1671146;86;20966;-73
2021/07/15 08:07:36;;;;;;;9.70;3.98;;;;;;;18.44;93.02;97723.89;1689310;85;21127;-74
2021/07/15 08:10:05;;;;;;;4.62;3.67;;;;;;;18.41;92.95;97732.81;1680699;85;20935;-73
2021/07/15 08:12:31;;;;;;;7.95;4.15;;;;;;;18.38;93.24;97742.52;1733833;82;20954;-74
2021/07/15 08:14:57;;;;;;;7.28;4.05;;;;;;;18.38;93.31;97744.47;1734685;82;20867;-74
2021/07/15 08:17:23;;;;;;;7.83;4.70;;;;;;;18.42;93.33;97744.81;1735102;82;20930;-74
2021/07/15 08:19:49;;;;;;;15.03;5.42;;;;;;;18.49;93.30;97749.19;1734751;82;21329;-74
2021/07/15 08:22:15;;;;;;;8.10;3.75;;;;;;;18.54;93.22;97758.59;1734690;82;20878;-74
2021/07/15 08:24:41;;;;;;;7.60;4.47;;;;;;;18.63;93.11;97759.87;1734800;82;20887;-74
2021/07/15 08:27:07;;;;;;;6.67;4.12;;;;;;;18.71;93.00;97760.92;1671346;85;20858;-74
2021/07/15 08:29:33;;;;;;;8.88;4.35;;;;;;;18.78;93.00;97762.55;1699401;83;20931;-74
2021/07/15 08:31:59;;;;;;;5.87;3.98;;;;;;;18.90;92.90;97772.78;1671353;85;21357;-74
2021/07/15 08:34:27;;;;;;;6.53;3.95;;;;;;;19.02;92.72;97779.08;1671201;85;21038;-74
2021/07/15 08:36:54;;;;;;;7.55;4.65;;;;;;;19.17;92.69;97766.64;1671134;85;20939;-74
2021/07/15 08:39:19;;;;;;;6.37;3.58;;;;;;;19.42;92.52;97764.14;1651984;86;21462;-74
2021/07/15 08:41:47;;;;;;;9.60;4.17;;;;;;;19.61;90.99;97754.53;1671388;85;20962;-74
2021/07/15 08:44:16;;;;;;;7.60;3.83;;;;;;;19.72;90.41;97750.16;1671271;85;22047;-74
2021/07/15 08:46:48;;;;;;;7.42;4.05;;;;;;;19.78;90.50;97746.04;1671054;85;20978;-74
2021/07/15 08:49:16;;;;;;;9.28;5.67;;;;;;;19.83;90.15;97756.01;1664758;85;21367;-74
2021/07/15 08:51:44;;;;;;;8.35;5.40;;;;;;;19.89;89.83;97760.90;1663883;85;21002;-74
2021/07/15 08:54:13;;;;;;;9.30;4.73;;;;;;;19.90;89.54;97757.00;1664060;86;20911;-74
2021/07/15 08:56:43;;;;;;;7.55;4.00;;;;;;;19.93;89.35;97763.20;1663813;85;21207;-74
2021/07/15 08:59:13;;;;;;;9.40;4.17;;;;;;;20.05;90.33;97769.23;1663601;86;21423;-74
2021/07/15 09:01:47;;;;;;;11.40;3.65;;;;;;;20.27;89.60;97774.22;1663747;85;20999;-74
2021/07/15 09:04:13;;;;;;;5.35;3.37;;;;;;;20.42;89.05;97771.28;1663621;86;20951;-74
2021/07/15 09:06:41;;;;;;;10.50;4.28;;;;;;;20.61;89.26;97788.58;1666811;85;21424;-74
2021/07/15 09:09:08;;;;;;;6.10;4.22;;;;;;;20.62;88.54;97793.50;1663887;85;21200;-74
2021/07/15 09:11:34;;;;;;;5.72;3.85;;;;;;;20.56;88.10;97794.31;1663396;85;20978;-74
2021/07/15 09:14:00;;;;;;;7.62;3.85;;;;;;;20.46;88.09;97797.58;1663741;85;21518;-74
2021/07/15 09:16:26;;;;;;;8.65;4.08;;;;;;;20.43;87.50;97806.51;1663348;85;20895;-73
2021/07/15 09:18:56;;;;;;;5.97;4.12;;;;;;;20.38;87.70;97811.67;1663744;85;21030;-73
2021/07/15 09:21:25;;;;;;;9.20;4.45;;;;;;;20.40;87.65;97818.19;1663450;85;22001;-74
2021/07/15 09:23:51;;;;;;;12.90;5.22;;;;;;;20.38;87.89;97813.63;1662989;86;20987;-74
2021/07/15 09:26:17;;;;;;;5.20;3.37;;;;;;;20.42;88.33;97818.06;1663467;85;21001;-74
2021/07/15 09:28:43;;;;;;;6.42;4.00;;;;;;;20.47;88.35;97829.44;1663668;85;20883;-75
2021/07/15 09:31:19;;;;;;;5.90;3.60;;;;;;;20.50;88.31;97832.86;1663525;85;20855;-74
2021/07/15 09:33:45;;;;;;;18.82;10.65;;;;;;;20.61;88.14;97829.06;1663843;86;21336;-74
2021/07/15 09:36:16;;;;;;;7.72;5.75;;;;;;;20.72;87.71;97813.64;1671776;85;20911;-74
2021/07/15 09:38:42;;;;;;;6.67;4.42;;;;;;;20.88;86.73;97817.23;1671768;84;20962;-73
2021/07/15 09:41:08;;;;;;;7.08;4.05;;;;;;;21.00;86.38;97814.41;1671686;85;21552;-73
2021/07/15 09:43:37;;;;;;;6.87;3.72;;;;;;;21.28;85.63;97803.95;1663819;85;20879;-73
2021/07/15 09:46:17;;;;;;;5.35;3.80;;;;;;;21.50;85.23;97792.29;1671924;85;21290;-73
2021/07/15 09:49:06;;;;;;;17.67;5.53;;;;;;;21.80;84.97;97789.06;1671767;85;20990;-73
2021/07/15 09:51:45;;;;;;;14.98;5.42;;;;;;;22.06;84.54;97787.09;1663550;85;20935;-73
2021/07/15 09:54:10;;;;;;;9.20;4.55;;;;;;;22.21;83.24;97779.35;1672473;85;21018;-74
2021/07/15 09:56:42;;;;;;;10.80;4.15;;;;;;;22.33;83.99;97765.43;1663499;85;20895;-73
2021/07/15 09:59:08;;;;;;;12.68;5.40;;;;;;;22.45;83.95;97766.66;1726343;83;21165;-74
2021/07/15 10:01:34;;;;;;;12.75;4.80;;;;;;;22.63;83.56;97763.44;1663607;85;21524;-73
2021/07/15 10:04:03;;;;;;;10.72;4.97;;;;;;;22.70;82.27;97762.20;1660806;82;20962;-73
2021/07/15 10:06:46;;;;;;;8.75;4.40;;;;;;;22.60;79.17;97755.32;1726612;83;20980;-74
2021/07/15 10:09:25;;;;;;;9.25;4.55;;;;;;;24.00;78.94;97755.71;1726487;83;20990;-74
2021/07/15 10:11:56;;;;;;;5.67;3.60;;;;;;;26.57;74.15;97765.80;1663821;85;21284;-74
2021/07/15 10:14:38;;;;;;;6.72;3.95;;;;;;;27.63;70.18;97767.20;1726409;83;21412;-74
2021/07/15 10:17:05;;;;;;;7.22;4.80;;;;;;;27.32;71.59;97762.62;1726710;82;21062;-74
2021/07/15 10:19:31;;;;;;;6.55;4.22;;;;;;;27.05;71.14;97764.98;1726865;83;20978;-73
2021/07/15 10:22:03;;;;;;;8.13;4.53;;;;;;;26.35;70.77;97768.47;1726662;83;20846;-73
2021/07/15 10:24:29;;;;;;;6.35;4.28;;;;;;;25.90;70.53;97775.97;1663704;86;21431;-74
2021/07/15 10:27:03;;;;;;;10.20;4.53;;;;;;;25.40;69.97;97779.12;1726175;83;20847;-74
2021/07/15 10:29:28;;;;;;;7.22;5.03;;;;;;;25.36;69.54;97778.28;1726694;83;21019;-74
2021/07/15 10:31:55;;;;;;;7.00;3.80;;;;;;;26.68;66.37;97785.51;1663439;85;21394;-74
2021/07/15 10:34:21;;;;;;;10.70;3.47;;;;;;;28.81;60.84;97773.28;1726219;83;21077;-74
2021/07/15 10:36:47;;;;;;;10.80;4.45;;;;;;;29.14;57.35;97764.92;1726631;83;22016;-74
2021/07/15 10:39:14;;;;;;;8.60;4.42;;;;;;;29.56;58.09;97756.06;1726826;83;21011;-74
2021/07/15 10:41:46;;;;;;;7.67;4.70;;;;;;;30.00;54.44;97760.84;1663899;85;21335;-74
2021/07/15 10:44:12;;;;;;;7.67;5.05;;;;;;;30.22;54.73;97764.22;1726510;83;21018;-74
2021/07/15 10:46:39;;;;;;;8.90;4.42;;;;;;;30.88;52.61;97763.82;1726526;83;21011;-75
2021/07/15 10:49:08;;;;;;;6.83;5.00;;;;;;;31.32;50.63;97757.20;1726583;83;21917;-74
2021/07/15 10:51:33;;;;;;;11.78;8.78;;;;;;;30.36;51.07;97755.68;1691500;84;26290;-75
2021/07/15 10:54:00;;;;;;;11.48;5.78;;;;;;;30.25;52.68;97761.98;1726630;83;21077;-75
2021/07/15 10:56:26;;;;;;;14.93;7.17;;;;;;;30.29;53.95;97756.55;1663675;85;21046;-74
2021/07/15 10:58:53;;;;;;;10.63;5.85;;;;;;;31.10;51.44;97756.69;1663936;86;20934;-75
2021/07/15 11:01:36;;;;;;;11.22;5.37;;;;;;;30.93;52.88;97752.75;1663647;85;21127;-75
2021/07/15 11:04:16;;;;;;;13.35;5.70;;;;;;;30.21;51.11;97750.85;1663729;86;21031;-75
2021/07/15 11:06:44;;;;;;;9.48;5.90;;;;;;;29.70;54.25;97753.94;1691572;84;20983;-75
2021/07/15 11:09:33;;;;;;;7.00;4.85;;;;;;;29.27;54.90;97750.69;1726789;82;21010;-75
2021/07/15 11:12:04;;;;;;;15.35;6.15;;;;;;;30.20;53.62;97736.70;1726565;83;21011;-74
2021/07/15 11:14:46;;;;;;;13.70;6.00;;;;;;;31.12;51.78;97727.70;1726755;83;20985;-75
2021/07/15 11:17:26;;;;;;;14.45;6.62;;;;;;;32.06;50.19;97724.14;1726420;83;21353;-75
2021/07/15 11:20:13;;;;;;;9.50;5.47;;;;;;;33.05;46.69;97708.02;1720775;83;20975;-74
2021/07/15 11:22:48;;;;;;;8.65;5.58;;;;;;;33.92;46.06;97708.88;1737453;82;20954;-76
2021/07/15 11:25:39;;;;;;;8.00;4.90;;;;;;;34.57;40.77;97711.48;1737615;82;21320;-75
2021/07/15 11:28:19;;;;;;;8.63;5.50;;;;;;;34.58;41.50;97713.05;1727573;82;21110;-75
2021/07/15 11:30:53;;;;;;;11.20;6.53;;;;;;;35.22;41.55;97709.68;1726591;83;21014;-76
2021/07/15 11:33:26;;;;;;;13.10;6.55;;;;;;;35.82;41.50;97715.33;1663581;85;20982;-76
2021/07/15 11:36:08;;;;;;;7.72;5.75;;;;;;;36.06;40.42;97710.05;1663734;86;21371;-75